createdAt,value
2018-08-10T00:00:26.162Z,0.40
2018-08-10T00:02:54.564Z,0.40
2018-08-10T00:05:23.021Z,0.60
2018-08-10T00:07:51.347Z,0.60
2018-08-10T00:10:19.766Z,0.67
2018-08-10T00:12:48.259Z,0.50
2018-08-10T00:15:16.617Z,0.40
2018-08-10T00:17:45.051Z,0.40
2018-08-10T00:20:15.344Z,0.30
2018-08-10T00:22:44.895Z,0.30
2018-08-10T00:25:15.197Z,0.20
2018-08-10T00:27:43.683Z,0.30
2018-08-10T00:30:15.773Z,0.20
2018-08-10T00:32:45.604Z,0.40
2018-08-10T00:35:14.090Z,0.37
2018-08-10T00:37:43.544Z,0.30
2018-08-10T00:40:13.987Z,0.13
2018-08-10T00:42:42.884Z,0.10
2018-08-10T00:45:12.824Z,0.20
2018-08-10T00:47:41.520Z,0.30
2018-08-10T00:50:11.553Z,0.40
2018-08-10T00:52:40.137Z,0.30
2018-08-10T00:55:11.119Z,0.30
2018-08-10T00:57:39.798Z,0.30
2018-08-10T01:00:11.146Z,0.40
2018-08-10T01:02:39.506Z,0.33
2018-08-10T01:05:09.131Z,0.30
2018-08-10T01:07:37.974Z,0.30
2018-08-10T01:10:11.023Z,0.20
2018-08-10T01:12:40.136Z,0.40
2018-08-10T01:15:10.796Z,0.30
2018-08-10T01:17:39.881Z,0.30
2018-08-10T01:20:19.282Z,0.30
2018-08-10T01:22:53.142Z,0.30
2018-08-10T01:25:22.911Z,0.20
2018-08-10T01:27:56.762Z,0.20
2018-08-10T01:30:26.503Z,0.20
2018-08-10T01:32:54.911Z,0.33
2018-08-10T01:35:24.003Z,0.30
2018-08-10T01:37:52.611Z,0.30
2018-08-10T01:40:20.958Z,0.43
2018-08-10T01:42:49.459Z,0.20
2018-08-10T01:45:18.278Z,0.20
2018-08-10T01:47:46.911Z,0.53
2018-08-10T01:50:15.443Z,0.30
2018-08-10T01:52:43.843Z,0.40
2018-08-10T01:55:12.548Z,0.20
2018-08-10T01:57:41.391Z,0.30
2018-08-10T02:00:10.751Z,0.20
2018-08-10T02:02:39.299Z,0.40
2018-08-10T02:05:09.609Z,0.20
2018-08-10T02:07:40.174Z,0.20
2018-08-10T02:10:12.094Z,0.20
2018-08-10T02:12:41.581Z,0.37
2018-08-10T02:15:12.255Z,0.10
2018-08-10T02:17:41.046Z,0.20
2018-08-10T02:20:11.527Z,0.30
2018-08-10T02:22:46.635Z,0.30
2018-08-10T02:25:16.668Z,0.40
2018-08-10T02:27:46.234Z,0.30
2018-08-10T02:30:16.104Z,0.30
2018-08-10T02:32:45.403Z,0.63
2018-08-10T02:35:13.857Z,0.30
2018-08-10T02:37:42.872Z,0.33
2018-08-10T02:40:16.409Z,0.20
2018-08-10T02:42:45.743Z,0.20
2018-08-10T02:45:14.317Z,0.20
2018-08-10T02:47:42.958Z,0.50
2018-08-10T02:50:11.452Z,0.40
2018-08-10T02:52:39.882Z,0.33
2018-08-10T02:55:09.435Z,0.40
2018-08-10T02:57:38.319Z,0.47
2018-08-10T03:00:09.193Z,0.30
2018-08-10T03:02:37.895Z,0.50
2018-08-10T03:05:07.367Z,0.40
2018-08-10T03:07:36.008Z,0.40
2018-08-10T03:10:05.321Z,0.30
2018-08-10T03:12:33.611Z,0.40
2018-08-10T03:15:01.980Z,0.40
2018-08-10T03:17:30.364Z,0.70
2018-08-10T03:19:58.768Z,0.43
2018-08-10T03:22:27.135Z,0.50
2018-08-10T03:24:55.471Z,0.67
2018-08-10T03:27:24.016Z,0.50
2018-08-10T03:29:52.493Z,0.67
2018-08-10T03:32:20.888Z,0.60
2018-08-10T03:34:49.313Z,0.60
2018-08-10T03:37:17.672Z,0.40
2018-08-10T03:39:46.144Z,0.40
2018-08-10T03:42:14.652Z,0.50
2018-08-10T03:44:43.084Z,0.70
2018-08-10T03:47:11.799Z,0.43
2018-08-10T03:49:40.543Z,0.60
2018-08-10T03:52:08.952Z,0.50
2018-08-10T03:54:37.385Z,0.57
2018-08-10T03:57:06.288Z,0.37
2018-08-10T03:59:34.667Z,0.60
2018-08-10T04:02:03.131Z,0.50
2018-08-10T04:04:31.628Z,0.50
2018-08-10T04:07:00.003Z,0.60
2018-08-10T04:09:28.527Z,0.57
2018-08-10T04:11:56.839Z,0.43
2018-08-10T04:14:25.307Z,0.53
2018-08-10T04:16:53.915Z,0.70
2018-08-10T04:19:22.408Z,0.50
2018-08-10T04:21:50.760Z,0.73
2018-08-10T04:24:19.175Z,0.60
2018-08-10T04:26:47.543Z,0.33
2018-08-10T04:29:15.944Z,0.60
2018-08-10T04:31:44.668Z,0.57
2018-08-10T04:34:13.135Z,0.70
2018-08-10T04:36:41.554Z,0.60
2018-08-10T04:39:12.388Z,0.53
2018-08-10T04:41:41.024Z,0.60
2018-08-10T04:44:09.579Z,0.70
2018-08-10T04:46:37.895Z,0.60
2018-08-10T04:49:07.027Z,1.10
2018-08-10T04:51:35.423Z,0.53
2018-08-10T04:54:04.072Z,0.90
2018-08-10T04:56:32.403Z,0.70
2018-08-10T04:59:00.809Z,0.77
2018-08-10T05:01:29.164Z,1.37
2018-08-10T05:03:57.672Z,0.60
2018-08-10T05:06:26.147Z,0.90
2018-08-10T05:08:54.895Z,0.63
2018-08-10T05:11:23.212Z,0.63
2018-08-10T05:13:51.599Z,0.80
2018-08-10T05:16:20.022Z,0.90
2018-08-10T05:18:48.448Z,0.67
2018-08-10T05:21:16.751Z,1.10
2018-08-10T05:23:45.181Z,0.80
2018-08-10T05:26:13.752Z,0.90
2018-08-10T05:28:42.333Z,0.83
2018-08-10T05:31:10.904Z,0.83
2018-08-10T05:33:39.897Z,0.63
2018-08-10T05:36:08.577Z,0.77
2018-08-10T05:38:36.976Z,0.80
2018-08-10T05:41:05.439Z,0.70
2018-08-10T05:43:33.767Z,1.00
2018-08-10T05:46:02.275Z,0.83
2018-08-10T05:48:35.189Z,1.00
2018-08-10T05:51:03.590Z,0.67
2018-08-10T05:53:32.026Z,0.70
2018-08-10T05:56:00.359Z,0.70
2018-08-10T05:58:29.000Z,1.00
2018-08-10T06:00:57.640Z,0.93
2018-08-10T06:03:26.898Z,0.80
2018-08-10T06:05:55.375Z,0.90
2018-08-10T06:08:24.101Z,0.80
2018-08-10T06:10:52.905Z,0.90
2018-08-10T06:13:21.429Z,0.70
2018-08-10T06:15:49.768Z,0.67
2018-08-10T06:18:18.407Z,0.90
2018-08-10T06:20:46.954Z,0.90
2018-08-10T06:23:15.927Z,0.73
2018-08-10T06:25:44.653Z,0.80
2018-08-10T06:28:13.259Z,0.60
2018-08-10T06:30:41.639Z,0.90
2018-08-10T06:33:10.364Z,0.90
2018-08-10T06:35:38.852Z,0.90
2018-08-10T06:38:07.251Z,1.03
2018-08-10T06:40:35.810Z,0.83
2018-08-10T06:43:04.228Z,0.80
2018-08-10T06:45:32.651Z,1.00
2018-08-10T06:48:01.035Z,0.83
2018-08-10T06:50:29.408Z,0.70
2018-08-10T06:52:57.687Z,0.90
2018-08-10T06:55:26.027Z,0.70
2018-08-10T06:57:54.568Z,0.80
2018-08-10T07:00:23.130Z,0.73
2018-08-10T07:02:51.487Z,0.77
2018-08-10T07:05:19.937Z,0.93
2018-08-10T07:07:48.354Z,1.03
2018-08-10T07:10:16.755Z,0.70
2018-08-10T07:12:45.382Z,0.80
2018-08-10T07:15:14.008Z,0.80
2018-08-10T07:17:42.382Z,1.10
2018-08-10T07:20:10.864Z,0.90
2018-08-10T07:22:39.905Z,0.80
2018-08-10T07:25:08.780Z,0.70
2018-08-10T07:27:37.215Z,1.03
2018-08-10T07:30:05.624Z,1.00
2018-08-10T07:32:33.967Z,1.00
2018-08-10T07:35:02.420Z,0.70
2018-08-10T07:37:30.804Z,0.70
2018-08-10T07:39:59.175Z,1.33
2018-08-10T07:42:27.562Z,0.97
2018-08-10T07:44:55.928Z,0.77
2018-08-10T07:47:24.296Z,1.10
2018-08-10T07:49:52.619Z,1.30
2018-08-10T07:52:21.199Z,1.10
2018-08-10T07:54:49.880Z,0.90
2018-08-10T07:57:18.383Z,0.90
2018-08-10T07:59:46.781Z,1.10
2018-08-10T08:02:15.435Z,0.80
2018-08-10T08:04:44.115Z,1.10
2018-08-10T08:07:12.732Z,1.03
2018-08-10T08:09:41.215Z,0.80
2018-08-10T08:12:09.621Z,1.03
2018-08-10T08:14:38.063Z,0.50
2018-08-10T08:17:06.544Z,1.00
2018-08-10T08:19:34.992Z,0.93
2018-08-10T08:22:09.410Z,0.97
2018-08-10T08:24:38.467Z,1.30
2018-08-10T08:27:07.057Z,0.90
2018-08-10T08:29:35.791Z,0.70
2018-08-10T08:32:04.778Z,1.27
2018-08-10T08:34:33.238Z,0.90
2018-08-10T08:37:02.629Z,1.00
2018-08-10T08:40:37.239Z,1.00
2018-08-10T08:43:05.615Z,0.90
2018-08-10T08:46:02.229Z,0.90
2018-08-10T08:48:33.044Z,0.90
2018-08-10T08:51:04.901Z,0.70
2018-08-10T08:53:33.439Z,1.10
2018-08-10T08:56:05.191Z,1.23
2018-08-10T08:58:33.980Z,0.73
2018-08-10T09:01:02.493Z,0.80
2018-08-10T09:03:42.204Z,0.90
2018-08-10T09:06:10.851Z,0.97
2018-08-10T09:08:43.797Z,1.00
2018-08-10T09:11:12.643Z,1.00
2018-08-10T09:14:54.166Z,1.10
2018-08-10T09:17:22.639Z,0.90
2018-08-10T09:19:50.963Z,0.90
2018-08-10T09:22:19.446Z,0.80
2018-08-10T09:24:47.959Z,1.00
2018-08-10T09:27:17.309Z,0.95
2018-08-10T09:29:45.763Z,0.98
2018-08-10T09:32:14.197Z,0.90
2018-08-10T09:34:42.547Z,0.80
2018-08-10T09:37:11.370Z,0.95
2018-08-10T09:39:39.764Z,0.80
2018-08-10T09:42:08.566Z,0.75
2018-08-10T09:44:36.956Z,0.80
2018-08-10T09:47:06.794Z,0.65
2018-08-10T09:49:39.032Z,0.63
2018-08-10T09:52:07.612Z,0.90
2018-08-10T09:55:14.177Z,0.90
2018-08-10T09:57:42.660Z,1.05
2018-08-10T10:00:15.423Z,0.80
2018-08-10T10:02:48.183Z,1.00
2018-08-10T10:05:16.663Z,0.70
2018-08-10T10:07:46.030Z,0.87
2018-08-10T10:10:14.744Z,1.00
2018-08-10T10:12:43.577Z,0.68
2018-08-10T10:15:12.107Z,0.68
2018-08-10T10:17:40.504Z,0.77
2018-08-10T10:20:12.642Z,0.90
2018-08-10T10:22:45.375Z,0.97
2018-08-10T10:25:15.041Z,0.90
2018-08-10T10:27:44.559Z,0.70
2018-08-10T10:30:13.574Z,1.13
2018-08-10T10:32:42.283Z,0.73
2018-08-10T10:35:10.794Z,0.63
2018-08-10T10:37:39.436Z,1.00
2018-08-10T10:40:09.336Z,0.90
2018-08-10T10:42:37.761Z,0.90
2018-08-10T10:45:09.756Z,0.70
2018-08-10T10:47:38.331Z,0.80
2018-08-10T10:50:07.812Z,0.95
2018-08-10T10:52:36.641Z,0.90
2018-08-10T10:55:05.461Z,0.90
2018-08-10T10:57:33.897Z,0.70
2018-08-10T11:00:02.363Z,0.70
2018-08-10T11:02:32.904Z,1.00
2018-08-10T11:05:01.501Z,0.90
2018-08-10T11:07:31.553Z,0.98
2018-08-10T11:10:02.731Z,0.93
2018-08-10T11:12:33.466Z,0.80
2018-08-10T11:15:01.888Z,1.02
2018-08-10T11:17:30.417Z,0.90
2018-08-10T11:20:00.915Z,0.93
2018-08-10T11:22:30.169Z,0.80
2018-08-10T11:24:58.654Z,0.98
2018-08-10T11:27:28.468Z,1.00
2018-08-10T11:29:57.000Z,0.93
2018-08-10T11:32:25.391Z,1.00
2018-08-10T11:34:53.979Z,1.05
2018-08-10T11:37:22.403Z,0.80
2018-08-10T11:39:50.888Z,1.15
2018-08-10T11:42:19.323Z,1.32
2018-08-10T11:44:47.753Z,1.00
2018-08-10T11:47:16.036Z,1.05
2018-08-10T11:49:44.522Z,1.00
2018-08-10T11:52:13.108Z,1.27
2018-08-10T11:54:41.707Z,0.98
2018-08-10T11:57:10.172Z,0.90
2018-08-10T11:59:38.492Z,1.07
2018-08-10T12:02:07.371Z,0.93
2018-08-10T12:04:35.667Z,0.90
2018-08-10T12:07:04.080Z,1.13
2018-08-10T12:09:32.502Z,0.80
2018-08-10T12:12:00.928Z,0.97
2018-08-10T12:14:29.288Z,0.87
2018-08-10T12:16:57.603Z,1.20
2018-08-10T12:19:26.011Z,1.40
2018-08-10T12:21:54.310Z,0.83
2018-08-10T12:24:22.651Z,0.77
2018-08-10T12:26:51.056Z,0.90
2018-08-10T12:29:19.419Z,0.85
2018-08-10T12:31:47.802Z,1.10
2018-08-10T12:34:16.157Z,1.00
2018-08-10T12:36:44.732Z,0.98
2018-08-10T12:39:14.391Z,0.70
2018-08-10T12:41:42.783Z,0.88
2018-08-10T12:44:11.645Z,0.90
2018-08-10T12:46:40.106Z,0.70
2018-08-10T12:49:08.996Z,0.98
2018-08-10T12:51:37.659Z,1.07
2018-08-10T12:54:06.033Z,0.90
2018-08-10T12:56:34.491Z,0.90
2018-08-10T12:59:03.266Z,1.02
2018-08-10T13:01:31.745Z,1.00
2018-08-10T13:04:00.239Z,0.90
2018-08-10T13:06:28.641Z,0.70
2018-08-10T13:08:57.127Z,0.85
2018-08-10T13:11:25.788Z,1.02
2018-08-10T13:13:54.179Z,1.00
2018-08-10T13:16:22.597Z,1.20
2018-08-10T13:18:51.099Z,0.90
2018-08-10T13:21:19.663Z,1.10
2018-08-10T13:23:48.090Z,0.90
2018-08-10T13:26:16.479Z,0.85
2018-08-10T13:28:45.015Z,0.90
2018-08-10T13:31:13.524Z,0.90
2018-08-10T13:33:42.007Z,0.82
2018-08-10T13:36:10.628Z,0.72
2018-08-10T13:38:39.235Z,0.93
2018-08-10T13:41:07.663Z,0.80
2018-08-10T13:43:38.543Z,0.62
2018-08-10T13:46:07.129Z,0.80
2018-08-10T13:48:35.528Z,0.82
2018-08-10T13:51:04.410Z,0.75
2018-08-10T13:53:32.787Z,0.78
2018-08-10T13:56:01.350Z,0.80
2018-08-10T13:58:29.789Z,0.70
2018-08-10T14:00:58.156Z,1.25
2018-08-10T14:03:26.514Z,0.95
2018-08-10T14:05:55.058Z,0.78
2018-08-10T14:08:23.605Z,0.80
2018-08-10T14:10:52.059Z,0.90
2018-08-10T14:13:20.632Z,0.90
2018-08-10T14:15:49.094Z,0.70
2018-08-10T14:18:18.122Z,0.82
2018-08-10T14:20:46.908Z,0.68
2018-08-10T14:23:15.640Z,0.57
2018-08-10T14:25:45.649Z,0.67
2018-08-10T14:28:14.228Z,0.70
2018-08-10T14:30:43.128Z,1.20
2018-08-10T14:33:11.723Z,0.90
2018-08-10T14:35:40.461Z,1.10
2018-08-10T14:38:09.078Z,0.70
2018-08-10T14:40:37.791Z,0.80
2018-08-10T14:43:06.124Z,0.90
2018-08-10T14:45:34.490Z,0.90
2018-08-10T14:48:03.045Z,1.10
2018-08-10T14:50:31.395Z,1.00
2018-08-10T14:52:59.860Z,0.93
2018-08-10T14:55:28.321Z,0.90
2018-08-10T14:57:56.740Z,1.00
2018-08-10T15:00:25.124Z,0.50
2018-08-10T15:02:54.891Z,0.70
2018-08-10T15:05:23.446Z,1.00
2018-08-10T15:07:52.002Z,0.70
2018-08-10T15:10:20.557Z,0.83
2018-08-10T15:12:49.279Z,0.70
2018-08-10T15:15:19.097Z,0.70
2018-08-10T15:17:50.431Z,0.70
2018-08-10T15:20:22.472Z,0.57
2018-08-10T15:22:53.938Z,0.70
2018-08-10T15:25:25.225Z,0.70
2018-08-10T15:27:55.726Z,0.70
2018-08-10T15:30:27.953Z,0.50
2018-08-10T15:32:59.599Z,0.83
2018-08-10T15:35:29.749Z,0.77
2018-08-10T15:37:58.554Z,0.70
2018-08-10T15:40:29.328Z,0.60
2018-08-10T15:43:05.713Z,0.67
2018-08-10T15:45:34.671Z,0.70
2018-08-10T15:48:03.121Z,1.00
2018-08-10T15:50:33.401Z,0.80
2018-08-10T15:53:02.294Z,0.60
2018-08-10T15:55:30.696Z,0.70
2018-08-10T15:57:59.069Z,0.77
2018-08-10T16:00:27.953Z,0.97
2018-08-10T16:02:57.467Z,1.07
2018-08-10T16:05:26.692Z,0.53
2018-08-10T16:07:55.171Z,0.77
2018-08-10T16:10:24.485Z,0.73
2018-08-10T16:12:52.966Z,0.80
2018-08-10T16:15:21.941Z,1.90
2018-08-10T16:17:51.032Z,1.33
2018-08-10T16:20:23.866Z,4.87
2018-08-10T16:22:52.905Z,8.37
2018-08-10T16:25:21.346Z,3.63
2018-08-10T16:27:50.033Z,8.70
2018-08-10T16:30:18.644Z,7.50
2018-08-10T16:32:47.288Z,2.57
2018-08-10T16:35:16.199Z,2.83
2018-08-10T16:37:46.052Z,2.20
2018-08-10T16:40:16.104Z,1.20
2018-08-10T16:42:44.933Z,0.93
2018-08-10T16:45:14.083Z,0.90
2018-08-10T16:47:42.686Z,0.83
2018-08-10T16:53:11.102Z,0.80
2018-08-10T16:55:39.627Z,0.93
2018-08-10T16:58:08.192Z,0.70
2018-08-10T17:00:36.670Z,0.90
2018-08-10T17:03:05.706Z,0.93
2018-08-10T17:05:34.414Z,0.63
2018-08-10T17:08:03.038Z,0.97
2018-08-10T17:10:31.431Z,1.33
2018-08-10T17:12:59.959Z,1.30
2018-08-10T17:15:28.514Z,0.77
2018-08-10T17:17:57.114Z,0.90
2018-08-10T17:20:25.491Z,0.90
2018-08-10T17:22:54.142Z,0.87
2018-08-10T17:25:22.950Z,0.80
2018-08-10T17:27:51.573Z,1.30
2018-08-10T17:30:20.681Z,1.03
2018-08-10T17:32:49.676Z,0.87
2018-08-10T17:35:18.406Z,1.00
2018-08-10T17:37:47.857Z,0.90
2018-08-10T17:40:16.436Z,0.90
2018-08-10T17:42:44.769Z,1.03
2018-08-10T17:45:15.316Z,1.60
2018-08-10T17:47:43.705Z,1.63
2018-08-10T17:50:14.845Z,1.37
2018-08-10T17:52:47.985Z,1.50
2018-08-10T17:55:17.221Z,1.73
2018-08-10T17:57:46.237Z,0.93
2018-08-10T18:00:20.489Z,1.10
2018-08-10T18:02:50.192Z,0.80
2018-08-10T18:05:19.037Z,1.10
2018-08-10T18:07:47.665Z,1.00
2018-08-10T18:10:16.502Z,1.10
2018-08-10T18:12:45.456Z,0.80
2018-08-10T18:15:16.170Z,0.83
2018-08-10T18:17:44.882Z,0.83
2018-08-10T18:20:15.401Z,0.50
2018-08-10T18:22:45.222Z,0.70
2018-08-10T18:25:14.943Z,1.33
2018-08-10T18:27:43.639Z,0.87
2018-08-10T18:30:17.890Z,1.10
2018-08-10T18:32:46.817Z,1.10
2018-08-10T18:35:15.334Z,1.60
2018-08-10T18:37:44.188Z,1.60
2018-08-10T18:40:13.867Z,1.30
2018-08-10T18:42:43.338Z,1.07
2018-08-10T18:45:13.272Z,1.00
2018-08-10T18:47:41.734Z,1.30
2018-08-10T18:50:11.904Z,0.90
2018-08-10T18:52:40.297Z,0.97
2018-08-10T18:55:11.419Z,1.47
2018-08-10T18:57:39.791Z,0.90
2018-08-10T19:00:10.739Z,1.20
2018-08-10T19:02:39.171Z,1.10
2018-08-10T19:05:09.623Z,1.17
2018-08-10T19:07:37.982Z,1.23
2018-08-10T19:10:07.778Z,1.63
2018-08-10T19:12:37.438Z,1.17
2018-08-10T19:15:08.504Z,1.23
2018-08-10T19:17:37.272Z,1.20
2018-08-10T19:20:05.696Z,1.50
2018-08-10T19:22:34.610Z,1.50
2018-08-10T19:25:03.087Z,1.40
2018-08-10T19:27:31.478Z,1.47
2018-08-10T19:30:00.054Z,1.33
2018-08-10T19:32:28.506Z,1.47
2018-08-10T19:34:56.950Z,1.20
2018-08-10T19:37:25.548Z,1.60
2018-08-10T19:39:53.987Z,1.47
2018-08-10T19:42:22.729Z,1.60
2018-08-10T19:44:51.121Z,1.47
2018-08-10T19:47:19.554Z,1.57
2018-08-10T19:49:47.914Z,1.40
2018-08-10T19:52:16.520Z,1.80
2018-08-10T19:54:45.009Z,1.40
2018-08-10T19:57:14.378Z,1.80
2018-08-10T19:59:43.174Z,1.77
2018-08-10T20:02:12.481Z,1.30
2018-08-10T20:04:40.830Z,1.63
2018-08-10T20:07:09.262Z,1.70
2018-08-10T20:09:37.751Z,1.40
2018-08-10T20:12:08.695Z,1.30
2018-08-10T20:14:37.353Z,1.27
2018-08-10T20:17:05.894Z,1.40
2018-08-10T20:19:34.346Z,1.30
2018-08-10T20:22:02.693Z,1.30
2018-08-10T20:24:31.114Z,0.90
2018-08-10T20:26:59.875Z,1.60
2018-08-10T20:29:28.570Z,1.27
2018-08-10T20:31:57.111Z,1.20
2018-08-10T20:34:25.561Z,1.20
2018-08-10T20:36:53.873Z,1.20
2018-08-10T20:39:22.454Z,1.23
2018-08-10T20:41:50.857Z,1.27
2018-08-10T20:44:19.358Z,1.33
2018-08-10T20:46:47.787Z,1.10
2018-08-10T20:49:16.125Z,1.10
2018-08-10T20:51:44.710Z,1.00
2018-08-10T20:54:13.356Z,1.10
2018-08-10T20:56:41.675Z,1.00
2018-08-10T20:59:10.071Z,1.10
2018-08-10T21:01:38.440Z,1.00
2018-08-10T21:04:06.983Z,1.27
2018-08-10T21:06:35.319Z,1.60
2018-08-10T21:09:05.037Z,1.27
2018-08-10T21:11:33.379Z,1.50
2018-08-10T21:14:01.740Z,1.00
2018-08-10T21:16:30.103Z,1.60
2018-08-10T21:18:58.560Z,1.97
2018-08-10T21:21:27.002Z,1.87
2018-08-10T21:23:55.518Z,1.50
2018-08-10T21:26:24.056Z,1.40
2018-08-10T21:28:52.414Z,1.87
2018-08-10T21:31:20.739Z,1.70
2018-08-10T21:33:49.179Z,3.30
2018-08-10T21:36:17.647Z,2.40
2018-08-10T21:38:46.011Z,1.50
2018-08-10T21:41:14.442Z,1.77
2018-08-10T21:43:42.786Z,1.30
2018-08-10T21:46:11.167Z,2.40
2018-08-10T21:48:39.532Z,1.43
2018-08-10T21:51:07.900Z,1.43
2018-08-10T21:53:36.256Z,3.83
2018-08-10T21:56:04.695Z,1.63
2018-08-10T21:58:33.059Z,1.63
2018-08-10T22:01:03.078Z,1.63
2018-08-10T22:03:31.450Z,1.40
2018-08-10T22:05:59.822Z,1.43
2018-08-10T22:08:28.470Z,1.50
2018-08-10T22:10:57.111Z,2.10
2018-08-10T22:13:30.754Z,1.67
2018-08-10T22:16:13.235Z,0.90
2018-08-10T22:18:47.029Z,1.40
2018-08-10T22:21:15.312Z,1.90
2018-08-10T22:23:43.646Z,1.20
2018-08-10T22:26:12.246Z,1.30
2018-08-10T22:28:40.572Z,1.40
2018-08-10T22:31:08.967Z,1.33
2018-08-10T22:33:37.383Z,1.40
2018-08-10T22:36:05.775Z,1.37
2018-08-10T22:38:34.312Z,1.40
2018-08-10T22:41:02.747Z,1.60
2018-08-10T22:43:31.294Z,1.00
2018-08-10T22:45:59.749Z,0.93
2018-08-10T22:48:28.105Z,1.40
2018-08-10T22:50:56.553Z,1.50
2018-08-10T22:53:25.043Z,1.40
2018-08-10T22:55:53.406Z,0.90
2018-08-10T22:58:21.827Z,1.37
2018-08-10T23:00:50.178Z,0.80
2018-08-10T23:03:18.583Z,1.50
2018-08-10T23:05:47.211Z,1.43
2018-08-10T23:08:15.602Z,1.30
2018-08-10T23:10:43.998Z,1.10
2018-08-10T23:13:12.403Z,1.00
2018-08-10T23:15:40.879Z,1.73
2018-08-10T23:18:09.380Z,1.10
2018-08-10T23:20:37.834Z,0.73
2018-08-10T23:23:06.354Z,1.30
2018-08-10T23:25:34.727Z,1.30
2018-08-10T23:28:03.251Z,1.40
2018-08-10T23:30:31.831Z,1.10
2018-08-10T23:33:00.381Z,0.97
2018-08-10T23:35:28.764Z,1.37
2018-08-10T23:37:57.262Z,1.00
2018-08-10T23:40:26.375Z,1.43
2018-08-10T23:42:55.684Z,1.20
2018-08-10T23:45:24.323Z,1.07
2018-08-10T23:47:52.835Z,0.73
2018-08-10T23:50:21.302Z,1.07
2018-08-10T23:52:49.683Z,0.83
2018-08-10T23:55:19.372Z,1.27
2018-08-10T23:57:48.018Z,1.00
